createdAt,value
2023-04-27T00:00:02.156Z,13.14
2023-04-27T00:02:40.109Z,13.16
2023-04-27T00:05:08.208Z,13.16
2023-04-27T00:07:35.724Z,13.02
2023-04-27T00:10:05.706Z,13.08
2023-04-27T00:12:33.108Z,13.21
2023-04-27T00:15:00.625Z,13.14
2023-04-27T00:17:29.910Z,13.11
2023-04-27T00:19:57.302Z,13.00
2023-04-27T00:22:24.583Z,13.00
2023-04-27T00:24:51.949Z,13.04
2023-04-27T00:27:19.264Z,12.88
2023-04-27T00:29:46.861Z,12.89
2023-04-27T00:32:14.225Z,12.86
2023-04-27T00:34:42.969Z,12.86
2023-04-27T00:37:10.341Z,12.81
2023-04-27T00:39:37.736Z,12.80
2023-04-27T00:42:05.204Z,12.80
2023-04-27T00:44:32.642Z,12.87
2023-04-27T00:47:00.062Z,12.86
2023-04-27T00:49:27.935Z,12.83
2023-04-27T00:51:56.278Z,12.89
2023-04-27T00:54:24.584Z,12.90
2023-04-27T00:56:52.884Z,12.90
2023-04-27T00:59:20.429Z,12.87
2023-04-27T01:01:51.017Z,12.84
2023-04-27T01:04:19.954Z,12.86
2023-04-27T01:06:50.334Z,12.81
2023-04-27T01:09:19.989Z,12.70
2023-04-27T01:11:50.413Z,12.73
2023-04-27T01:14:17.839Z,12.70
2023-04-27T01:16:46.429Z,12.69
2023-04-27T01:19:14.088Z,12.73
2023-04-27T01:21:41.622Z,12.70
2023-04-27T01:24:09.450Z,12.64
2023-04-27T01:26:38.184Z,12.68
2023-04-27T01:29:05.623Z,12.51
2023-04-27T01:31:33.052Z,12.52
2023-04-27T01:34:00.428Z,12.37
2023-04-27T01:36:28.193Z,12.26
2023-04-27T01:38:56.878Z,12.36
2023-04-27T01:41:24.244Z,12.26
2023-04-27T01:43:51.558Z,12.11
2023-04-27T01:46:18.906Z,12.07
2023-04-27T01:48:46.332Z,11.85
2023-04-27T01:51:13.722Z,11.83
2023-04-27T01:53:42.010Z,11.63
2023-04-27T01:56:10.415Z,11.50
2023-04-27T01:58:37.921Z,11.60
2023-04-27T02:01:07.410Z,11.56
2023-04-27T02:03:34.969Z,11.45
2023-04-27T02:06:02.492Z,11.51
2023-04-27T02:08:29.820Z,11.48
2023-04-27T02:10:58.063Z,11.44
2023-04-27T02:13:25.458Z,11.49
2023-04-27T02:15:52.855Z,11.51
2023-04-27T02:18:21.875Z,11.56
2023-04-27T02:20:49.324Z,11.62
2023-04-27T02:23:16.748Z,11.55
2023-04-27T02:25:46.854Z,11.55
2023-04-27T02:28:14.642Z,11.58
2023-04-27T02:30:42.646Z,11.64
2023-04-27T02:33:10.145Z,11.65
2023-04-27T02:35:37.665Z,11.61
2023-04-27T02:38:05.016Z,11.60
2023-04-27T02:40:32.459Z,11.48
2023-04-27T02:43:00.006Z,11.31
2023-04-27T02:45:28.575Z,11.29
2023-04-27T02:47:55.940Z,11.23
2023-04-27T02:50:23.402Z,11.13
2023-04-27T02:52:50.981Z,11.12
2023-04-27T02:55:18.530Z,11.03
2023-04-27T02:57:46.172Z,11.00
2023-04-27T03:00:13.981Z,11.06
2023-04-27T03:02:41.498Z,11.12
2023-04-27T03:05:09.120Z,11.17
2023-04-27T03:07:36.465Z,11.10
2023-04-27T03:10:07.630Z,11.24
2023-04-27T03:12:35.014Z,11.25
2023-04-27T03:15:02.631Z,11.12
2023-04-27T03:17:30.155Z,11.38
2023-04-27T03:19:57.739Z,11.39
2023-04-27T03:22:25.241Z,11.49
2023-04-27T03:24:54.065Z,11.44
2023-04-27T03:27:21.440Z,11.23
2023-04-27T03:29:56.997Z,11.20
2023-04-27T03:32:24.447Z,10.92
2023-04-27T03:34:52.349Z,10.91
2023-04-27T03:37:19.697Z,10.93
2023-04-27T03:39:47.253Z,10.96
2023-04-27T03:42:14.806Z,10.90
2023-04-27T03:44:42.207Z,10.80
2023-04-27T03:47:12.264Z,10.75
2023-04-27T03:49:40.558Z,10.71
2023-04-27T03:52:08.728Z,10.75
2023-04-27T03:54:36.838Z,10.74
2023-04-27T03:57:04.447Z,10.77
2023-04-27T03:59:31.971Z,10.70
2023-04-27T04:02:01.125Z,10.84
2023-04-27T04:04:29.137Z,10.69
2023-04-27T04:06:57.079Z,10.68
2023-04-27T04:09:25.143Z,10.45
2023-04-27T04:11:52.910Z,10.62
2023-04-27T04:14:20.388Z,10.56
2023-04-27T04:16:47.834Z,10.46
2023-04-27T04:19:15.513Z,10.39
2023-04-27T04:21:43.104Z,10.40
2023-04-27T04:24:10.490Z,10.31
2023-04-27T04:26:40.921Z,10.46
2023-04-27T04:29:10.940Z,10.47
2023-04-27T04:31:40.058Z,10.60
2023-04-27T04:34:10.147Z,10.63
2023-04-27T04:36:38.098Z,10.62
2023-04-27T04:39:06.798Z,10.66
2023-04-27T04:41:34.113Z,10.60
2023-04-27T04:44:03.609Z,10.70
2023-04-27T04:46:31.110Z,10.66
2023-04-27T04:48:58.551Z,10.64
2023-04-27T04:51:25.923Z,10.77
2023-04-27T04:53:56.610Z,10.76
2023-04-27T04:56:24.345Z,10.91
2023-04-27T04:58:54.152Z,11.10
2023-04-27T05:01:22.048Z,11.25
2023-04-27T05:03:49.572Z,11.40
2023-04-27T05:06:16.963Z,11.55
2023-04-27T05:08:44.523Z,11.56
2023-04-27T05:11:11.904Z,11.69
2023-04-27T05:13:40.276Z,11.67
2023-04-27T05:16:10.548Z,11.78
2023-04-27T05:18:37.933Z,11.87
2023-04-27T05:21:05.499Z,11.99
2023-04-27T05:23:32.872Z,12.05
2023-04-27T05:26:00.305Z,12.04
2023-04-27T05:28:27.732Z,12.16
2023-04-27T05:30:55.042Z,12.34
2023-04-27T05:33:22.559Z,12.41
2023-04-27T05:35:49.935Z,12.56
2023-04-27T05:38:17.572Z,12.64
2023-04-27T05:40:44.961Z,12.66
2023-04-27T05:43:12.572Z,12.86
2023-04-27T05:45:40.641Z,12.96
2023-04-27T05:48:08.214Z,13.06
2023-04-27T05:50:35.924Z,13.13
2023-04-27T05:53:05.633Z,13.31
2023-04-27T05:55:33.229Z,13.39
2023-04-27T05:58:08.732Z,13.47
2023-04-27T06:00:36.918Z,13.68
2023-04-27T06:03:04.441Z,13.69
2023-04-27T06:05:32.055Z,13.83
2023-04-27T06:08:01.509Z,13.78
2023-04-27T06:10:28.865Z,13.89
2023-04-27T06:12:56.486Z,14.07
2023-04-27T06:15:23.812Z,14.31
2023-04-27T06:17:51.362Z,14.43
2023-04-27T06:20:18.815Z,14.98
2023-04-27T06:22:46.928Z,15.05
2023-04-27T06:25:14.358Z,15.03
2023-04-27T06:27:41.865Z,15.09
2023-04-27T06:30:09.637Z,15.65
2023-04-27T06:32:37.063Z,18.04
2023-04-27T06:35:04.672Z,20.57
2023-04-27T06:37:32.809Z,22.96
2023-04-27T06:40:00.189Z,23.87
2023-04-27T06:42:27.529Z,24.33
2023-04-27T06:44:56.393Z,24.96
2023-04-27T06:47:23.851Z,24.79
2023-04-27T06:49:51.514Z,23.76
2023-04-27T06:52:19.036Z,22.19
2023-04-27T06:54:48.960Z,20.98
2023-04-27T06:57:16.384Z,19.14
2023-04-27T06:59:43.786Z,18.87
2023-04-27T07:02:12.011Z,19.24
2023-04-27T07:04:39.375Z,18.87
2023-04-27T07:07:07.047Z,17.89
2023-04-27T07:09:34.486Z,17.65
2023-04-27T07:12:02.860Z,17.47
2023-04-27T07:14:30.524Z,17.76
2023-04-27T07:16:57.943Z,18.15
2023-04-27T07:19:25.495Z,18.46
2023-04-27T07:21:56.140Z,18.34
2023-04-27T07:24:23.631Z,17.73
2023-04-27T07:26:50.973Z,17.65
2023-04-27T07:29:26.923Z,17.96
2023-04-27T07:31:58.394Z,18.35
2023-04-27T07:34:25.893Z,18.18
2023-04-27T07:36:54.602Z,18.10
2023-04-27T07:39:22.432Z,18.17
2023-04-27T07:41:54.193Z,18.24
2023-04-27T07:44:21.665Z,18.80
2023-04-27T07:46:49.381Z,19.19
2023-04-27T07:49:17.160Z,18.78
2023-04-27T07:51:44.520Z,18.98
2023-04-27T07:54:11.984Z,18.39
2023-04-27T07:56:42.146Z,18.88
2023-04-27T07:59:09.615Z,19.24
2023-04-27T08:01:37.791Z,18.82
2023-04-27T08:04:05.964Z,18.98
2023-04-27T08:06:34.611Z,19.36
2023-04-27T08:09:04.164Z,19.27
2023-04-27T08:11:32.872Z,19.54
2023-04-27T08:14:00.254Z,20.07
2023-04-27T08:16:27.952Z,19.59
2023-04-27T08:18:55.415Z,19.26
2023-04-27T08:21:22.801Z,19.64
2023-04-27T08:23:50.255Z,19.66
2023-04-27T08:26:17.589Z,19.97
2023-04-27T08:28:45.130Z,19.36
2023-04-27T08:31:12.891Z,19.38
2023-04-27T08:33:40.274Z,19.07
2023-04-27T08:36:07.975Z,19.80
2023-04-27T08:38:35.966Z,20.53
2023-04-27T08:41:14.512Z,20.47
2023-04-27T08:43:47.840Z,20.87
2023-04-27T08:46:18.994Z,21.19
2023-04-27T08:48:47.365Z,20.41
2023-04-27T08:51:16.059Z,19.78
2023-04-27T08:53:54.874Z,19.90
2023-04-27T08:56:27.949Z,20.89
2023-04-27T08:58:58.048Z,20.57
2023-04-27T09:01:26.365Z,20.44
2023-04-27T09:03:58.361Z,20.21
2023-04-27T09:06:36.324Z,20.92
2023-04-27T09:09:04.147Z,20.92
2023-04-27T09:11:37.035Z,21.42
2023-04-27T09:14:20.657Z,22.05
2023-04-27T09:16:59.416Z,21.87
2023-04-27T09:19:28.832Z,21.31
2023-04-27T09:22:07.498Z,20.92
2023-04-27T09:24:35.801Z,21.31
2023-04-27T09:27:04.632Z,21.55
2023-04-27T09:29:36.662Z,20.75
2023-04-27T09:32:17.196Z,20.49
2023-04-27T09:34:45.424Z,21.27
2023-04-27T09:37:14.591Z,20.13
2023-04-27T09:39:42.634Z,20.93
2023-04-27T09:42:13.635Z,21.51
2023-04-27T09:44:40.984Z,20.49
2023-04-27T09:47:10.613Z,21.03
2023-04-27T09:49:38.910Z,21.30
2023-04-27T09:52:06.317Z,21.00
2023-04-27T09:54:34.712Z,21.46
2023-04-27T09:57:23.871Z,21.49
2023-04-27T10:00:00.456Z,21.44
2023-04-27T10:02:31.583Z,21.76
2023-04-27T10:05:26.975Z,22.07
2023-04-27T10:07:57.397Z,20.93
2023-04-27T10:10:24.883Z,21.90
2023-04-27T10:12:58.010Z,21.51
2023-04-27T10:15:28.195Z,22.11
2023-04-27T10:17:59.000Z,22.05
2023-04-27T10:20:31.539Z,22.54
2023-04-27T10:22:59.724Z,22.17
2023-04-27T10:25:36.881Z,21.92
2023-04-27T10:28:04.835Z,21.79
2023-04-27T10:30:39.513Z,22.43
2023-04-27T10:33:11.909Z,22.26
2023-04-27T10:35:41.620Z,22.25
2023-04-27T10:38:10.510Z,22.36
2023-04-27T10:40:38.728Z,21.74
2023-04-27T10:43:13.795Z,21.48
2023-04-27T10:45:42.554Z,22.07
2023-04-27T10:48:14.354Z,22.65
2023-04-27T10:50:42.539Z,22.52
2023-04-27T10:53:09.992Z,22.09
2023-04-27T10:55:37.486Z,22.17
2023-04-27T10:58:05.004Z,22.69
2023-04-27T11:00:36.674Z,22.93
2023-04-27T11:03:24.930Z,23.17
2023-04-27T11:06:04.355Z,22.69
2023-04-27T11:08:32.818Z,22.83
2023-04-27T11:11:00.209Z,22.90
2023-04-27T11:13:31.012Z,22.89
2023-04-27T11:16:01.157Z,21.82
2023-04-27T11:18:33.070Z,21.68
2023-04-27T11:21:18.455Z,21.19
2023-04-27T11:23:49.203Z,21.91
2023-04-27T11:26:18.958Z,21.80
2023-04-27T11:28:58.854Z,22.38
2023-04-27T11:31:27.200Z,21.72
2023-04-27T11:33:55.998Z,21.84
2023-04-27T11:36:23.890Z,22.10
2023-04-27T11:38:51.440Z,22.39
2023-04-27T11:41:19.607Z,22.66
2023-04-27T11:43:49.324Z,22.48
2023-04-27T11:46:21.320Z,21.96
2023-04-27T11:48:49.279Z,22.26
2023-04-27T11:51:16.751Z,22.16
2023-04-27T11:53:48.190Z,21.91
2023-04-27T11:56:15.671Z,22.06
2023-04-27T11:58:46.265Z,22.35
2023-04-27T12:01:15.473Z,22.16
2023-04-27T12:03:43.025Z,21.87
2023-04-27T12:06:31.614Z,21.91
2023-04-27T12:08:58.376Z,22.34
2023-04-27T12:11:28.794Z,21.99
2023-04-27T12:13:56.936Z,22.56
2023-04-27T12:16:24.457Z,22.14
2023-04-27T12:18:52.408Z,21.57
2023-04-27T12:21:20.294Z,21.77
2023-04-27T12:23:47.799Z,21.89
2023-04-27T12:26:15.515Z,21.99
2023-04-27T12:28:43.331Z,21.79
2023-04-27T12:31:14.250Z,21.39
2023-04-27T12:33:42.117Z,21.08
2023-04-27T12:36:09.518Z,21.31
2023-04-27T12:38:37.249Z,21.45
2023-04-27T12:41:04.935Z,21.68
2023-04-27T12:43:32.499Z,21.54
2023-04-27T12:45:59.853Z,21.61
2023-04-27T12:48:27.269Z,21.88
2023-04-27T12:50:54.748Z,21.62
2023-04-27T12:53:22.339Z,22.12
2023-04-27T12:55:49.666Z,22.27
2023-04-27T12:58:19.935Z,22.61
2023-04-27T13:00:47.403Z,22.86
2023-04-27T13:03:14.996Z,22.94
2023-04-27T13:05:42.535Z,23.06
2023-04-27T13:08:10.146Z,22.56
2023-04-27T13:10:37.974Z,22.88
2023-04-27T13:13:06.875Z,22.30
2023-04-27T13:15:34.213Z,22.45
2023-04-27T13:18:05.231Z,22.55
2023-04-27T13:20:32.833Z,22.19
2023-04-27T13:23:01.010Z,22.64
2023-04-27T13:25:29.125Z,22.53
2023-04-27T13:27:59.288Z,22.71
2023-04-27T13:30:26.701Z,22.68
2023-04-27T13:32:54.333Z,22.53
2023-04-27T13:35:21.880Z,22.67
2023-04-27T13:37:49.351Z,22.48
2023-04-27T13:40:16.946Z,22.52
2023-04-27T13:42:44.343Z,22.12
2023-04-27T13:45:11.861Z,22.61
2023-04-27T13:47:42.384Z,21.61
2023-04-27T13:50:11.069Z,21.05
2023-04-27T13:52:39.313Z,20.80
2023-04-27T13:55:09.148Z,21.00
2023-04-27T13:57:36.981Z,21.34
2023-04-27T14:00:11.384Z,21.69
2023-04-27T14:02:39.588Z,22.10
2023-04-27T14:05:07.629Z,21.86
2023-04-27T14:07:35.873Z,21.61
2023-04-27T14:10:04.216Z,21.98
2023-04-27T14:12:32.478Z,21.46
2023-04-27T14:14:59.906Z,21.56
2023-04-27T14:17:27.391Z,21.77
2023-04-27T14:19:54.916Z,21.95
2023-04-27T14:22:22.382Z,21.67
2023-04-27T14:24:49.700Z,21.77
2023-04-27T14:27:17.139Z,21.96
2023-04-27T14:29:44.588Z,21.73
2023-04-27T14:32:15.009Z,21.35
2023-04-27T14:34:42.397Z,21.46
2023-04-27T14:37:09.739Z,21.38
2023-04-27T14:39:38.465Z,21.53
2023-04-27T14:42:05.945Z,21.45
2023-04-27T14:44:33.561Z,21.61
2023-04-27T14:47:01.102Z,21.33
2023-04-27T14:49:28.610Z,21.34
2023-04-27T14:51:56.097Z,21.44
2023-04-27T14:54:23.519Z,21.55
2023-04-27T14:56:51.053Z,21.48
2023-04-27T14:59:18.537Z,21.46
2023-04-27T15:01:45.900Z,21.65
2023-04-27T15:04:13.362Z,21.75
2023-04-27T15:06:40.820Z,21.73
2023-04-27T15:09:08.269Z,21.62
2023-04-27T15:11:35.687Z,21.42
2023-04-27T15:14:03.148Z,21.16
2023-04-27T15:16:30.686Z,20.76
2023-04-27T15:18:58.154Z,20.63
2023-04-27T15:21:25.523Z,20.59
2023-04-27T15:23:52.939Z,20.91
2023-04-27T15:26:20.243Z,21.00
2023-04-27T15:28:47.719Z,20.84
2023-04-27T15:31:15.690Z,21.00
2023-04-27T15:33:43.182Z,21.03
2023-04-27T15:36:11.195Z,20.97
2023-04-27T15:38:38.749Z,21.11
2023-04-27T15:41:08.845Z,20.92
2023-04-27T15:43:36.515Z,20.98
2023-04-27T15:46:05.501Z,21.01
2023-04-27T15:48:33.050Z,21.10
2023-04-27T15:51:00.435Z,20.83
2023-04-27T15:53:28.022Z,21.05
2023-04-27T15:55:55.403Z,21.05
2023-04-27T15:58:22.866Z,21.07
2023-04-27T16:00:50.461Z,21.12
2023-04-27T16:03:41.246Z,20.75
2023-04-27T16:06:08.971Z,20.77
2023-04-27T16:08:36.286Z,20.84
2023-04-27T16:11:03.728Z,20.68
2023-04-27T16:13:32.623Z,20.72
2023-04-27T16:16:00.376Z,20.73
2023-04-27T16:18:27.757Z,20.64
2023-04-27T16:20:55.120Z,20.46
2023-04-27T16:23:25.441Z,20.64
2023-04-27T16:25:53.037Z,20.62
2023-04-27T16:28:20.581Z,20.41
2023-04-27T16:30:48.023Z,20.55
2023-04-27T16:33:15.591Z,20.51
2023-04-27T16:35:43.038Z,20.38
2023-04-27T16:38:10.493Z,20.47
2023-04-27T16:40:37.938Z,20.43
2023-04-27T16:43:05.468Z,20.46
2023-04-27T16:45:33.619Z,20.55
2023-04-27T16:48:02.559Z,20.40
2023-04-27T16:50:32.885Z,20.51
2023-04-27T16:53:07.011Z,20.48
2023-04-27T16:55:35.278Z,20.34
2023-04-27T16:58:02.721Z,20.24
2023-04-27T17:00:30.292Z,20.10
2023-04-27T17:02:57.684Z,20.14
2023-04-27T17:05:25.457Z,20.05
2023-04-27T17:07:53.276Z,19.92
2023-04-27T17:10:20.719Z,19.94
2023-04-27T17:12:48.107Z,19.81
2023-04-27T17:15:15.557Z,19.85
2023-04-27T17:17:44.334Z,19.88
2023-04-27T17:20:12.722Z,19.85
2023-04-27T17:22:40.105Z,19.81
2023-04-27T17:25:08.630Z,19.69
2023-04-27T17:27:36.035Z,19.70
2023-04-27T17:30:04.978Z,19.57
2023-04-27T17:32:32.573Z,19.46
2023-04-27T17:34:59.965Z,19.58
2023-04-27T17:37:27.287Z,19.59
2023-04-27T17:39:54.691Z,19.49
2023-04-27T17:42:22.099Z,19.32
2023-04-27T17:44:49.482Z,19.27
2023-04-27T17:47:19.008Z,18.99
2023-04-27T17:49:46.450Z,18.82
2023-04-27T17:52:13.787Z,18.72
2023-04-27T17:54:41.203Z,18.68
2023-04-27T17:57:09.402Z,18.61
2023-04-27T17:59:36.990Z,18.53
2023-04-27T18:02:04.390Z,18.48
2023-04-27T18:04:32.628Z,18.34
2023-04-27T18:07:00.131Z,18.40
2023-04-27T18:09:28.454Z,18.28
2023-04-27T18:11:56.987Z,18.13
2023-04-27T18:14:24.532Z,18.05
2023-04-27T18:16:53.493Z,18.11
2023-04-27T18:19:21.050Z,18.09
2023-04-27T18:21:48.552Z,18.39
2023-04-27T18:24:15.990Z,18.09
2023-04-27T18:26:43.284Z,17.90
2023-04-27T18:29:10.686Z,17.96
2023-04-27T18:31:38.197Z,17.79
2023-04-27T18:34:07.731Z,17.73
2023-04-27T18:36:35.082Z,17.87
2023-04-27T18:39:02.909Z,17.76
2023-04-27T18:41:30.310Z,17.74
2023-04-27T18:44:05.705Z,17.79
2023-04-27T18:46:33.211Z,17.82
2023-04-27T18:49:01.382Z,17.76
2023-04-27T18:51:29.181Z,17.68
2023-04-27T18:53:56.665Z,17.49
2023-04-27T18:56:24.164Z,17.46
2023-04-27T18:58:51.820Z,17.37
2023-04-27T19:01:24.026Z,17.35
2023-04-27T19:03:52.335Z,17.11
2023-04-27T19:06:20.991Z,16.98
2023-04-27T19:08:48.877Z,17.01
2023-04-27T19:11:16.414Z,16.93
2023-04-27T19:13:45.216Z,16.90
2023-04-27T19:16:12.694Z,16.89
2023-04-27T19:18:43.531Z,16.81
2023-04-27T19:21:11.092Z,16.80
2023-04-27T19:23:38.511Z,16.60
2023-04-27T19:26:13.297Z,16.67
2023-04-27T19:28:41.349Z,16.78
2023-04-27T19:31:09.467Z,16.79
2023-04-27T19:33:37.125Z,16.55
2023-04-27T19:36:07.513Z,16.59
2023-04-27T19:38:36.149Z,16.53
2023-04-27T19:41:06.722Z,16.35
2023-04-27T19:43:34.109Z,16.38
2023-04-27T19:46:01.867Z,16.28
2023-04-27T19:48:29.259Z,16.31
2023-04-27T19:50:56.688Z,16.20
2023-04-27T19:53:24.188Z,16.29
2023-04-27T19:55:52.029Z,16.38
2023-04-27T19:58:19.380Z,16.17
2023-04-27T20:00:47.285Z,16.12
2023-04-27T20:03:14.828Z,16.04
2023-04-27T20:05:42.735Z,15.96
2023-04-27T20:08:10.523Z,16.08
2023-04-27T20:10:37.907Z,16.02
2023-04-27T20:13:05.221Z,16.00
2023-04-27T20:15:32.632Z,15.95
2023-04-27T20:18:01.720Z,15.92
2023-04-27T20:20:29.232Z,15.86
2023-04-27T20:22:56.634Z,15.89
2023-04-27T20:25:25.674Z,15.94
2023-04-27T20:27:53.035Z,15.88
2023-04-27T20:30:20.500Z,15.77
2023-04-27T20:32:48.634Z,15.70
2023-04-27T20:35:16.008Z,15.71
2023-04-27T20:37:43.860Z,15.74
2023-04-27T20:40:14.532Z,15.63
2023-04-27T20:42:44.909Z,15.75
2023-04-27T20:45:12.310Z,15.71
2023-04-27T20:47:39.668Z,15.55
2023-04-27T20:50:07.904Z,15.47
2023-04-27T20:52:35.898Z,15.41
2023-04-27T20:55:04.493Z,15.40
2023-04-27T20:57:32.236Z,15.33
2023-04-27T20:59:59.664Z,15.26
2023-04-27T21:02:27.098Z,15.28
2023-04-27T21:04:54.486Z,15.27
2023-04-27T21:07:21.946Z,15.17
2023-04-27T21:09:49.255Z,15.21
2023-04-27T21:12:17.695Z,15.12
2023-04-27T21:14:48.318Z,15.12
2023-04-27T21:17:15.635Z,15.05
2023-04-27T21:19:42.991Z,15.06
2023-04-27T21:22:10.454Z,15.06
2023-04-27T21:24:37.730Z,15.13
2023-04-27T21:27:05.164Z,15.14
2023-04-27T21:29:37.945Z,15.06
2023-04-27T21:32:05.431Z,15.06
2023-04-27T21:34:32.736Z,14.94
2023-04-27T21:37:00.157Z,14.90
2023-04-27T21:39:30.186Z,15.03
2023-04-27T21:41:57.501Z,14.93
2023-04-27T21:44:24.980Z,14.82
2023-04-27T21:46:52.424Z,14.76
2023-04-27T21:49:19.756Z,14.81
2023-04-27T21:51:47.157Z,14.69
2023-04-27T21:54:14.672Z,14.62
2023-04-27T21:56:42.676Z,14.55
2023-04-27T21:59:10.092Z,14.58
2023-04-27T22:01:37.887Z,14.57
2023-04-27T22:04:06.390Z,14.57
2023-04-27T22:06:33.882Z,14.66
2023-04-27T22:09:01.834Z,14.58
2023-04-27T22:11:29.714Z,14.58
2023-04-27T22:13:57.147Z,14.40
2023-04-27T22:16:24.575Z,14.37
2023-04-27T22:18:52.196Z,14.35
2023-04-27T22:21:19.600Z,14.36
2023-04-27T22:23:48.044Z,14.31
2023-04-27T22:26:15.549Z,14.28
2023-04-27T22:28:46.003Z,14.31
2023-04-27T22:31:13.526Z,14.18
2023-04-27T22:33:40.909Z,14.27
2023-04-27T22:36:08.587Z,14.22
2023-04-27T22:38:36.028Z,14.24
2023-04-27T22:41:04.895Z,14.32
2023-04-27T22:43:32.251Z,14.31
2023-04-27T22:45:59.690Z,14.24
2023-04-27T22:48:27.279Z,14.17
2023-04-27T22:50:54.679Z,14.12
2023-04-27T22:53:22.817Z,14.09
2023-04-27T22:55:50.329Z,14.17
2023-04-27T22:58:18.391Z,14.13
2023-04-27T23:00:45.869Z,14.12
2023-04-27T23:03:13.467Z,14.03
2023-04-27T23:05:41.161Z,14.01
2023-04-27T23:08:08.527Z,14.14
2023-04-27T23:10:39.937Z,14.15
2023-04-27T23:13:11.297Z,14.18
2023-04-27T23:15:41.831Z,14.04
2023-04-27T23:18:09.134Z,14.06
2023-04-27T23:20:36.505Z,14.09
2023-04-27T23:23:03.867Z,14.07
2023-04-27T23:25:34.304Z,14.01
2023-04-27T23:28:01.703Z,13.95
2023-04-27T23:30:30.518Z,13.91
2023-04-27T23:32:57.894Z,13.92
2023-04-27T23:35:27.738Z,13.87
2023-04-27T23:37:55.513Z,13.88
2023-04-27T23:40:22.870Z,13.71
2023-04-27T23:42:52.140Z,13.70
2023-04-27T23:45:20.477Z,13.72
2023-04-27T23:47:47.815Z,13.79
2023-04-27T23:50:15.868Z,13.79
2023-04-27T23:52:43.300Z,13.74
2023-04-27T23:55:10.876Z,13.61
2023-04-27T23:57:38.169Z,13.65
